sensor_id;sensor_type;location;lat;lon;timestamp;P1;durP1;ratioP1;P2;durP2;ratioP2
6426;SDS011;3246;42.664;23.308;2023-06-24T00:00:34;12.57;;;11.27;;
6426;SDS011;3246;42.664;23.308;2023-06-24T00:03:03;11.65;;;10.55;;
6426;SDS011;3246;42.664;23.308;2023-06-24T00:05:32;11.52;;;10.35;;
6426;SDS011;3246;42.664;23.308;2023-06-24T00:07:58;11.35;;;10.35;;
6426;SDS011;3246;42.664;23.308;2023-06-24T00:10:27;11.55;;;10.38;;
6426;SDS011;3246;42.664;23.308;2023-06-24T00:12:54;11.75;;;10.65;;
6426;SDS011;3246;42.664;23.308;2023-06-24T00:15:20;19.92;;;11.38;;
6426;SDS011;3246;42.664;23.308;2023-06-24T00:17:46;12.23;;;11.23;;
6426;SDS011;3246;42.664;23.308;2023-06-24T00:20:16;12.90;;;10.63;;
6426;SDS011;3246;42.664;23.308;2023-06-24T00:22:45;15.93;;;10.48;;
6426;SDS011;3246;42.664;23.308;2023-06-24T00:25:13;12.57;;;11.07;;
6426;SDS011;3246;42.664;23.308;2023-06-24T00:27:40;11.98;;;10.85;;
6426;SDS011;3246;42.664;23.308;2023-06-24T00:30:07;11.70;;;10.65;;
6426;SDS011;3246;42.664;23.308;2023-06-24T00:32:34;15.98;;;11.18;;
6426;SDS011;3246;42.664;23.308;2023-06-24T00:35:00;14.15;;;10.63;;
6426;SDS011;3246;42.664;23.308;2023-06-24T00:37:28;13.93;;;10.93;;
6426;SDS011;3246;42.664;23.308;2023-06-24T00:39:55;10.98;;;10.05;;
6426;SDS011;3246;42.664;23.308;2023-06-24T00:42:21;10.90;;;9.90;;
6426;SDS011;3246;42.664;23.308;2023-06-24T00:44:48;14.25;;;12.80;;
6426;SDS011;3246;42.664;23.308;2023-06-24T00:47:14;14.60;;;13.10;;
6426;SDS011;3246;42.664;23.308;2023-06-24T00:49:41;23.13;;;13.07;;
6426;SDS011;3246;42.664;23.308;2023-06-24T00:52:10;14.45;;;12.77;;
6426;SDS011;3246;42.664;23.308;2023-06-24T00:54:41;19.83;;;11.45;;
6426;SDS011;3246;42.664;23.308;2023-06-24T00:57:08;14.80;;;13.05;;
6426;SDS011;3246;42.664;23.308;2023-06-24T00:59:35;17.50;;;12.55;;
6426;SDS011;3246;42.664;23.308;2023-06-24T01:02:02;13.18;;;12.00;;
6426;SDS011;3246;42.664;23.308;2023-06-24T01:04:29;17.60;;;13.70;;
6426;SDS011;3246;42.664;23.308;2023-06-24T01:06:58;15.88;;;13.77;;
6426;SDS011;3246;42.664;23.308;2023-06-24T01:09:25;12.70;;;11.35;;
6426;SDS011;3246;42.664;23.308;2023-06-24T01:11:53;13.75;;;12.25;;
6426;SDS011;3246;42.664;23.308;2023-06-24T01:14:20;15.02;;;12.70;;
6426;SDS011;3246;42.664;23.308;2023-06-24T01:16:49;14.50;;;13.00;;
6426;SDS011;3246;42.664;23.308;2023-06-24T01:19:23;12.63;;;11.52;;
6426;SDS011;3246;42.664;23.308;2023-06-24T01:21:56;19.35;;;13.07;;
6426;SDS011;3246;42.664;23.308;2023-06-24T01:24:42;13.90;;;12.07;;
6426;SDS011;3246;42.664;23.308;2023-06-24T01:32:44;12.93;;;11.70;;
6426;SDS011;3246;42.664;23.308;2023-06-24T01:35:15;16.10;;;13.07;;
6426;SDS011;3246;42.664;23.308;2023-06-24T01:37:46;14.73;;;13.10;;
6426;SDS011;3246;42.664;23.308;2023-06-24T01:40:15;17.58;;;13.20;;
6426;SDS011;3246;42.664;23.308;2023-06-24T01:42:46;13.73;;;12.43;;
6426;SDS011;3246;42.664;23.308;2023-06-24T01:45:14;15.98;;;12.82;;
6426;SDS011;3246;42.664;23.308;2023-06-24T01:47:42;12.68;;;11.45;;
6426;SDS011;3246;42.664;23.308;2023-06-24T01:50:11;13.68;;;12.00;;
6426;SDS011;3246;42.664;23.308;2023-06-24T01:52:38;14.25;;;12.00;;
6426;SDS011;3246;42.664;23.308;2023-06-24T01:55:07;14.68;;;12.38;;
6426;SDS011;3246;42.664;23.308;2023-06-24T01:57:35;15.88;;;14.32;;
6426;SDS011;3246;42.664;23.308;2023-06-24T02:00:02;14.30;;;13.00;;
6426;SDS011;3246;42.664;23.308;2023-06-24T02:02:31;15.23;;;13.18;;
6426;SDS011;3246;42.664;23.308;2023-06-24T02:04:58;18.65;;;13.27;;
6426;SDS011;3246;42.664;23.308;2023-06-24T02:07:28;14.27;;;12.80;;
6426;SDS011;3246;42.664;23.308;2023-06-24T02:09:55;17.45;;;13.88;;
6426;SDS011;3246;42.664;23.308;2023-06-24T02:12:21;17.75;;;13.38;;
6426;SDS011;3246;42.664;23.308;2023-06-24T02:14:49;17.90;;;14.13;;
6426;SDS011;3246;42.664;23.308;2023-06-24T02:17:16;16.08;;;13.75;;
6426;SDS011;3246;42.664;23.308;2023-06-24T02:19:43;16.85;;;14.05;;
6426;SDS011;3246;42.664;23.308;2023-06-24T02:22:10;15.23;;;13.75;;
6426;SDS011;3246;42.664;23.308;2023-06-24T02:24:38;17.75;;;15.15;;
6426;SDS011;3246;42.664;23.308;2023-06-24T02:27:06;18.98;;;13.52;;
6426;SDS011;3246;42.664;23.308;2023-06-24T02:29:33;16.38;;;14.68;;
6426;SDS011;3246;42.664;23.308;2023-06-24T02:32:00;17.88;;;15.15;;
6426;SDS011;3246;42.664;23.308;2023-06-24T02:34:27;16.50;;;14.90;;
6426;SDS011;3246;42.664;23.308;2023-06-24T02:36:53;19.23;;;15.85;;
6426;SDS011;3246;42.664;23.308;2023-06-24T02:39:20;19.50;;;15.55;;
6426;SDS011;3246;42.664;23.308;2023-06-24T02:41:49;17.02;;;15.18;;
6426;SDS011;3246;42.664;23.308;2023-06-24T02:44:15;17.23;;;15.13;;
6426;SDS011;3246;42.664;23.308;2023-06-24T02:46:42;19.48;;;16.10;;
6426;SDS011;3246;42.664;23.308;2023-06-24T02:49:09;19.45;;;16.73;;
6426;SDS011;3246;42.664;23.308;2023-06-24T02:51:38;16.00;;;14.50;;
6426;SDS011;3246;42.664;23.308;2023-06-24T02:54:04;18.20;;;16.33;;
6426;SDS011;3246;42.664;23.308;2023-06-24T02:56:31;18.30;;;16.00;;
6426;SDS011;3246;42.664;23.308;2023-06-24T02:58:59;17.70;;;15.60;;
6426;SDS011;3246;42.664;23.308;2023-06-24T03:01:26;20.63;;;15.93;;
6426;SDS011;3246;42.664;23.308;2023-06-24T03:03:53;16.65;;;14.90;;
6426;SDS011;3246;42.664;23.308;2023-06-24T03:06:19;17.67;;;15.77;;
6426;SDS011;3246;42.664;23.308;2023-06-24T03:08:46;20.27;;;15.77;;
6426;SDS011;3246;42.664;23.308;2023-06-24T03:11:13;20.23;;;15.43;;
6426;SDS011;3246;42.664;23.308;2023-06-24T03:13:40;23.17;;;16.35;;
6426;SDS011;3246;42.664;23.308;2023-06-24T03:16:08;17.27;;;14.70;;
6426;SDS011;3246;42.664;23.308;2023-06-24T03:18:37;20.30;;;16.33;;
6426;SDS011;3246;42.664;23.308;2023-06-24T03:21:03;15.85;;;14.30;;
6426;SDS011;3246;42.664;23.308;2023-06-24T03:23:31;18.17;;;15.45;;
6426;SDS011;3246;42.664;23.308;2023-06-24T03:25:57;18.05;;;16.23;;
6426;SDS011;3246;42.664;23.308;2023-06-24T03:28:24;17.83;;;15.88;;
6426;SDS011;3246;42.664;23.308;2023-06-24T03:30:51;19.55;;;14.60;;
6426;SDS011;3246;42.664;23.308;2023-06-24T03:33:19;18.17;;;16.15;;
6426;SDS011;3246;42.664;23.308;2023-06-24T03:35:45;18.55;;;15.98;;
6426;SDS011;3246;42.664;23.308;2023-06-24T03:38:11;21.00;;;15.75;;
6426;SDS011;3246;42.664;23.308;2023-06-24T03:40:38;17.40;;;15.70;;
6426;SDS011;3246;42.664;23.308;2023-06-24T03:43:04;17.00;;;15.27;;
6426;SDS011;3246;42.664;23.308;2023-06-24T03:45:31;17.83;;;14.85;;
6426;SDS011;3246;42.664;23.308;2023-06-24T03:47:57;18.42;;;15.98;;
6426;SDS011;3246;42.664;23.308;2023-06-24T03:50:25;16.42;;;14.73;;
6426;SDS011;3246;42.664;23.308;2023-06-24T03:52:52;16.77;;;15.00;;
6426;SDS011;3246;42.664;23.308;2023-06-24T03:55:18;18.08;;;15.75;;
6426;SDS011;3246;42.664;23.308;2023-06-24T03:57:45;17.15;;;15.43;;
6426;SDS011;3246;42.664;23.308;2023-06-24T04:00:12;18.17;;;16.30;;
6426;SDS011;3246;42.664;23.308;2023-06-24T04:02:41;16.65;;;14.95;;
6426;SDS011;3246;42.664;23.308;2023-06-24T04:05:08;17.27;;;15.40;;
6426;SDS011;3246;42.664;23.308;2023-06-24T04:07:36;20.92;;;15.63;;
6426;SDS011;3246;42.664;23.308;2023-06-24T04:10:03;18.58;;;16.67;;
6426;SDS011;3246;42.664;23.308;2023-06-24T04:12:33;19.10;;;17.17;;
6426;SDS011;3246;42.664;23.308;2023-06-24T04:15:00;18.20;;;16.30;;
6426;SDS011;3246;42.664;23.308;2023-06-24T04:17:26;17.38;;;15.60;;
6426;SDS011;3246;42.664;23.308;2023-06-24T04:19:53;18.08;;;16.27;;
6426;SDS011;3246;42.664;23.308;2023-06-24T04:22:19;22.05;;;16.88;;
6426;SDS011;3246;42.664;23.308;2023-06-24T04:24:47;22.17;;;19.17;;
6426;SDS011;3246;42.664;23.308;2023-06-24T04:27:14;19.65;;;17.70;;
6426;SDS011;3246;42.664;23.308;2023-06-24T04:29:40;18.05;;;15.32;;
6426;SDS011;3246;42.664;23.308;2023-06-24T04:32:07;19.95;;;17.95;;
6426;SDS011;3246;42.664;23.308;2023-06-24T04:34:33;24.27;;;19.73;;
6426;SDS011;3246;42.664;23.308;2023-06-24T04:37:00;21.00;;;18.08;;
6426;SDS011;3246;42.664;23.308;2023-06-24T04:39:26;19.58;;;17.50;;
6426;SDS011;3246;42.664;23.308;2023-06-24T04:41:54;17.80;;;16.00;;
6426;SDS011;3246;42.664;23.308;2023-06-24T04:44:21;23.02;;;17.90;;
6426;SDS011;3246;42.664;23.308;2023-06-24T04:46:47;23.60;;;18.17;;
6426;SDS011;3246;42.664;23.308;2023-06-24T04:49:14;17.15;;;15.45;;
6426;SDS011;3246;42.664;23.308;2023-06-24T04:51:40;16.67;;;14.95;;
6426;SDS011;3246;42.664;23.308;2023-06-24T04:54:08;17.25;;;15.48;;
6426;SDS011;3246;42.664;23.308;2023-06-24T04:56:34;18.58;;;16.10;;
6426;SDS011;3246;42.664;23.308;2023-06-24T04:59:02;18.85;;;17.02;;
6426;SDS011;3246;42.664;23.308;2023-06-24T05:01:29;18.52;;;16.58;;
6426;SDS011;3246;42.664;23.308;2023-06-24T05:03:55;17.30;;;14.88;;
6426;SDS011;3246;42.664;23.308;2023-06-24T05:06:22;19.42;;;15.52;;
6426;SDS011;3246;42.664;23.308;2023-06-24T05:08:48;19.88;;;16.65;;
6426;SDS011;3246;42.664;23.308;2023-06-24T05:11:15;23.10;;;17.27;;
6426;SDS011;3246;42.664;23.308;2023-06-24T05:13:41;18.70;;;16.80;;
6426;SDS011;3246;42.664;23.308;2023-06-24T05:16:09;21.33;;;16.60;;
6426;SDS011;3246;42.664;23.308;2023-06-24T05:18:36;19.17;;;16.92;;
6426;SDS011;3246;42.664;23.308;2023-06-24T05:21:02;22.67;;;17.67;;
6426;SDS011;3246;42.664;23.308;2023-06-24T05:23:29;19.02;;;16.92;;
6426;SDS011;3246;42.664;23.308;2023-06-24T05:25:55;19.42;;;16.25;;
6426;SDS011;3246;42.664;23.308;2023-06-24T05:28:22;19.55;;;17.05;;
6426;SDS011;3246;42.664;23.308;2023-06-24T05:30:48;19.15;;;17.35;;
6426;SDS011;3246;42.664;23.308;2023-06-24T05:33:16;19.88;;;17.83;;
6426;SDS011;3246;42.664;23.308;2023-06-24T05:35:43;24.02;;;17.67;;
6426;SDS011;3246;42.664;23.308;2023-06-24T05:38:09;19.90;;;16.60;;
6426;SDS011;3246;42.664;23.308;2023-06-24T05:40:36;20.23;;;16.70;;
6426;SDS011;3246;42.664;23.308;2023-06-24T05:43:02;25.70;;;17.70;;
6426;SDS011;3246;42.664;23.308;2023-06-24T05:45:29;21.77;;;17.20;;
6426;SDS011;3246;42.664;23.308;2023-06-24T05:47:55;18.05;;;15.73;;
6426;SDS011;3246;42.664;23.308;2023-06-24T05:50:23;17.27;;;15.38;;
6426;SDS011;3246;42.664;23.308;2023-06-24T05:52:49;20.05;;;15.68;;
6426;SDS011;3246;42.664;23.308;2023-06-24T05:55:16;19.13;;;16.73;;
6426;SDS011;3246;42.664;23.308;2023-06-24T05:57:42;25.17;;;16.25;;
6426;SDS011;3246;42.664;23.308;2023-06-24T06:00:09;20.40;;;16.77;;
6426;SDS011;3246;42.664;23.308;2023-06-24T06:02:36;18.92;;;16.95;;
6426;SDS011;3246;42.664;23.308;2023-06-24T06:05:03;17.40;;;15.63;;
6426;SDS011;3246;42.664;23.308;2023-06-24T06:07:31;23.48;;;16.80;;
6426;SDS011;3246;42.664;23.308;2023-06-24T06:09:57;15.68;;;14.07;;
6426;SDS011;3246;42.664;23.308;2023-06-24T06:12:23;18.60;;;14.93;;
6426;SDS011;3246;42.664;23.308;2023-06-24T06:14:50;21.17;;;14.95;;
6426;SDS011;3246;42.664;23.308;2023-06-24T06:17:16;15.88;;;14.23;;
6426;SDS011;3246;42.664;23.308;2023-06-24T06:19:43;18.80;;;13.90;;
6426;SDS011;3246;42.664;23.308;2023-06-24T06:22:12;14.68;;;13.27;;
6426;SDS011;3246;42.664;23.308;2023-06-24T06:24:40;14.18;;;12.88;;
6426;SDS011;3246;42.664;23.308;2023-06-24T06:27:08;16.40;;;14.05;;
6426;SDS011;3246;42.664;23.308;2023-06-24T06:29:35;13.77;;;12.48;;
6426;SDS011;3246;42.664;23.308;2023-06-24T06:32:01;24.48;;;14.07;;
6426;SDS011;3246;42.664;23.308;2023-06-24T06:34:28;14.68;;;12.30;;
6426;SDS011;3246;42.664;23.308;2023-06-24T06:36:54;14.98;;;13.43;;
6426;SDS011;3246;42.664;23.308;2023-06-24T06:39:21;15.98;;;14.23;;
6426;SDS011;3246;42.664;23.308;2023-06-24T06:41:49;15.10;;;13.65;;
6426;SDS011;3246;42.664;23.308;2023-06-24T06:44:15;17.13;;;14.85;;
6426;SDS011;3246;42.664;23.308;2023-06-24T06:46:42;15.50;;;13.88;;
6426;SDS011;3246;42.664;23.308;2023-06-24T06:49:08;16.77;;;14.70;;
6426;SDS011;3246;42.664;23.308;2023-06-24T06:51:35;15.93;;;14.23;;
6426;SDS011;3246;42.664;23.308;2023-06-24T06:54:01;14.98;;;13.48;;
6426;SDS011;3246;42.664;23.308;2023-06-24T06:56:28;15.27;;;13.68;;
6426;SDS011;3246;42.664;23.308;2023-06-24T06:58:56;18.27;;;14.40;;
6426;SDS011;3246;42.664;23.308;2023-06-24T07:01:22;14.68;;;12.85;;
6426;SDS011;3246;42.664;23.308;2023-06-24T07:03:49;15.20;;;13.40;;
6426;SDS011;3246;42.664;23.308;2023-06-24T07:06:16;17.40;;;13.25;;
6426;SDS011;3246;42.664;23.308;2023-06-24T07:08:43;14.18;;;12.88;;
6426;SDS011;3246;42.664;23.308;2023-06-24T07:11:10;13.25;;;11.93;;
6426;SDS011;3246;42.664;23.308;2023-06-24T07:13:36;14.02;;;12.48;;
6426;SDS011;3246;42.664;23.308;2023-06-24T07:16:04;14.32;;;13.10;;
6426;SDS011;3246;42.664;23.308;2023-06-24T07:18:31;14.35;;;13.02;;
6426;SDS011;3246;42.664;23.308;2023-06-24T07:20:59;13.85;;;12.45;;
6426;SDS011;3246;42.664;23.308;2023-06-24T07:23:26;15.43;;;13.90;;
6426;SDS011;3246;42.664;23.308;2023-06-24T07:25:52;14.35;;;12.20;;
6426;SDS011;3246;42.664;23.308;2023-06-24T07:28:19;17.08;;;13.68;;
6426;SDS011;3246;42.664;23.308;2023-06-24T07:30:45;15.20;;;13.57;;
6426;SDS011;3246;42.664;23.308;2023-06-24T07:33:13;14.13;;;12.90;;
6426;SDS011;3246;42.664;23.308;2023-06-24T07:35:39;14.20;;;12.80;;
6426;SDS011;3246;42.664;23.308;2023-06-24T07:38:06;14.32;;;13.02;;
6426;SDS011;3246;42.664;23.308;2023-06-24T07:40:32;14.38;;;13.07;;
6426;SDS011;3246;42.664;23.308;2023-06-24T07:42:59;15.30;;;13.75;;
6426;SDS011;3246;42.664;23.308;2023-06-24T07:45:25;15.05;;;13.60;;
6426;SDS011;3246;42.664;23.308;2023-06-24T07:47:52;16.38;;;14.80;;
6426;SDS011;3246;42.664;23.308;2023-06-24T07:50:20;20.85;;;16.17;;
6426;SDS011;3246;42.664;23.308;2023-06-24T07:52:46;15.75;;;13.57;;
6426;SDS011;3246;42.664;23.308;2023-06-24T07:55:13;14.18;;;12.82;;
6426;SDS011;3246;42.664;23.308;2023-06-24T07:57:39;20.17;;;14.88;;
6426;SDS011;3246;42.664;23.308;2023-06-24T08:00:06;15.82;;;14.13;;
6426;SDS011;3246;42.664;23.308;2023-06-24T08:02:34;15.65;;;14.15;;
6426;SDS011;3246;42.664;23.308;2023-06-24T08:05:01;17.65;;;15.95;;
6426;SDS011;3246;42.664;23.308;2023-06-24T08:07:29;17.92;;;16.17;;
6426;SDS011;3246;42.664;23.308;2023-06-24T08:09:55;15.90;;;14.15;;
6426;SDS011;3246;42.664;23.308;2023-06-24T08:12:22;15.88;;;13.98;;
6426;SDS011;3246;42.664;23.308;2023-06-24T08:14:48;15.43;;;14.00;;
6426;SDS011;3246;42.664;23.308;2023-06-24T08:17:15;15.98;;;14.23;;
6426;SDS011;3246;42.664;23.308;2023-06-24T08:19:41;18.95;;;14.15;;
6426;SDS011;3246;42.664;23.308;2023-06-24T08:22:08;17.33;;;15.65;;
6426;SDS011;3246;42.664;23.308;2023-06-24T08:24:36;16.50;;;14.77;;
6426;SDS011;3246;42.664;23.308;2023-06-24T08:27:02;16.30;;;14.52;;
6426;SDS011;3246;42.664;23.308;2023-06-24T08:29:29;18.35;;;16.55;;
6426;SDS011;3246;42.664;23.308;2023-06-24T08:31:55;18.10;;;16.15;;
6426;SDS011;3246;42.664;23.308;2023-06-24T08:34:22;15.40;;;13.85;;
6426;SDS011;3246;42.664;23.308;2023-06-24T08:36:48;18.92;;;16.75;;
6426;SDS011;3246;42.664;23.308;2023-06-24T08:39:15;25.00;;;15.18;;
6426;SDS011;3246;42.664;23.308;2023-06-24T08:41:43;20.27;;;17.98;;
6426;SDS011;3246;42.664;23.308;2023-06-24T08:44:09;14.15;;;12.80;;
6426;SDS011;3246;42.664;23.308;2023-06-24T08:46:36;16.27;;;14.68;;
6426;SDS011;3246;42.664;23.308;2023-06-24T08:49:06;16.00;;;14.43;;
6426;SDS011;3246;42.664;23.308;2023-06-24T08:51:40;15.45;;;13.95;;
6426;SDS011;3246;42.664;23.308;2023-06-24T08:54:07;15.00;;;13.45;;
6426;SDS011;3246;42.664;23.308;2023-06-24T08:56:35;15.18;;;13.70;;
6426;SDS011;3246;42.664;23.308;2023-06-24T08:59:05;15.18;;;13.68;;
6426;SDS011;3246;42.664;23.308;2023-06-24T09:01:31;15.07;;;13.68;;
6426;SDS011;3246;42.664;23.308;2023-06-24T09:03:58;15.60;;;12.80;;
6426;SDS011;3246;42.664;23.308;2023-06-24T09:06:24;16.02;;;14.48;;
6426;SDS011;3246;42.664;23.308;2023-06-24T09:08:53;14.57;;;13.05;;
6426;SDS011;3246;42.664;23.308;2023-06-24T09:11:23;18.85;;;16.38;;
6426;SDS011;3246;42.664;23.308;2023-06-24T09:13:54;15.52;;;14.02;;
6426;SDS011;3246;42.664;23.308;2023-06-24T09:16:21;17.52;;;15.27;;
6426;SDS011;3246;42.664;23.308;2023-06-24T09:18:48;16.77;;;15.32;;
6426;SDS011;3246;42.664;23.308;2023-06-24T09:21:20;13.38;;;12.00;;
6426;SDS011;3246;42.664;23.308;2023-06-24T09:23:47;15.25;;;13.90;;
6426;SDS011;3246;42.664;23.308;2023-06-24T09:26:16;14.30;;;12.90;;
6426;SDS011;3246;42.664;23.308;2023-06-24T09:28:46;19.25;;;16.70;;
6426;SDS011;3246;42.664;23.308;2023-06-24T09:31:13;14.13;;;12.93;;
6426;SDS011;3246;42.664;23.308;2023-06-24T09:33:41;23.55;;;20.40;;
6426;SDS011;3246;42.664;23.308;2023-06-24T09:36:10;18.52;;;14.25;;
6426;SDS011;3246;42.664;23.308;2023-06-24T09:38:37;15.07;;;12.95;;
6426;SDS011;3246;42.664;23.308;2023-06-24T09:41:06;17.52;;;15.68;;
6426;SDS011;3246;42.664;23.308;2023-06-24T09:43:33;16.83;;;13.15;;
6426;SDS011;3246;42.664;23.308;2023-06-24T09:46:01;18.13;;;15.40;;
6426;SDS011;3246;42.664;23.308;2023-06-24T09:48:27;17.15;;;15.48;;
6426;SDS011;3246;42.664;23.308;2023-06-24T09:50:55;17.23;;;15.52;;
6426;SDS011;3246;42.664;23.308;2023-06-24T09:53:23;14.00;;;12.80;;
6426;SDS011;3246;42.664;23.308;2023-06-24T09:55:49;19.85;;;18.08;;
6426;SDS011;3246;42.664;23.308;2023-06-24T09:58:18;19.67;;;15.38;;
6426;SDS011;3246;42.664;23.308;2023-06-24T10:00:44;17.13;;;15.15;;
6426;SDS011;3246;42.664;23.308;2023-06-24T10:03:11;12.77;;;11.57;;
6426;SDS011;3246;42.664;23.308;2023-06-24T10:05:37;23.58;;;19.50;;
6426;SDS011;3246;42.664;23.308;2023-06-24T10:08:06;15.02;;;12.30;;
6426;SDS011;3246;42.664;23.308;2023-06-24T10:10:33;13.85;;;12.52;;
6426;SDS011;3246;42.664;23.308;2023-06-24T10:12:59;11.27;;;10.35;;
6426;SDS011;3246;42.664;23.308;2023-06-24T10:15:26;12.50;;;11.13;;
6426;SDS011;3246;42.664;23.308;2023-06-24T10:17:52;12.98;;;11.63;;
6426;SDS011;3246;42.664;23.308;2023-06-24T10:20:23;18.58;;;14.55;;
6426;SDS011;3246;42.664;23.308;2023-06-24T10:22:50;13.23;;;12.00;;
6426;SDS011;3246;42.664;23.308;2023-06-24T10:25:18;15.73;;;12.82;;
6426;SDS011;3246;42.664;23.308;2023-06-24T10:27:46;13.02;;;11.73;;
6426;SDS011;3246;42.664;23.308;2023-06-24T10:30:17;13.15;;;12.00;;
6426;SDS011;3246;42.664;23.308;2023-06-24T10:32:44;12.70;;;11.50;;
6426;SDS011;3246;42.664;23.308;2023-06-24T10:35:21;13.32;;;12.05;;
6426;SDS011;3246;42.664;23.308;2023-06-24T10:37:53;13.18;;;11.85;;
6426;SDS011;3246;42.664;23.308;2023-06-24T10:40:30;11.20;;;10.20;;
6426;SDS011;3246;42.664;23.308;2023-06-24T10:43:00;12.05;;;11.05;;
6426;SDS011;3246;42.664;23.308;2023-06-24T10:45:27;12.95;;;11.73;;
6426;SDS011;3246;42.664;23.308;2023-06-24T10:47:53;11.65;;;10.15;;
6426;SDS011;3246;42.664;23.308;2023-06-24T10:50:21;11.57;;;10.32;;
6426;SDS011;3246;42.664;23.308;2023-06-24T10:52:49;12.02;;;10.85;;
6426;SDS011;3246;42.664;23.308;2023-06-24T10:55:18;12.15;;;11.00;;
6426;SDS011;3246;42.664;23.308;2023-06-24T10:57:46;16.00;;;11.35;;
6426;SDS011;3246;42.664;23.308;2023-06-24T11:00:13;14.77;;;9.57;;
6426;SDS011;3246;42.664;23.308;2023-06-24T11:02:40;11.07;;;9.98;;
6426;SDS011;3246;42.664;23.308;2023-06-24T11:05:07;10.18;;;9.25;;
6426;SDS011;3246;42.664;23.308;2023-06-24T11:07:34;11.07;;;8.50;;
6426;SDS011;3246;42.664;23.308;2023-06-24T11:10:01;9.77;;;8.95;;
6426;SDS011;3246;42.664;23.308;2023-06-24T11:12:29;10.35;;;9.43;;
6426;SDS011;3246;42.664;23.308;2023-06-24T11:14:58;9.50;;;7.93;;
6426;SDS011;3246;42.664;23.308;2023-06-24T11:17:25;8.32;;;7.50;;
6426;SDS011;3246;42.664;23.308;2023-06-24T11:19:52;8.60;;;7.90;;
6426;SDS011;3246;42.664;23.308;2023-06-24T11:22:18;11.48;;;10.50;;
6426;SDS011;3246;42.664;23.308;2023-06-24T11:24:45;11.75;;;10.35;;
6426;SDS011;3246;42.664;23.308;2023-06-24T11:27:11;10.70;;;9.65;;
6426;SDS011;3246;42.664;23.308;2023-06-24T11:29:38;8.98;;;8.15;;
6426;SDS011;3246;42.664;23.308;2023-06-24T11:32:08;8.88;;;7.88;;
6426;SDS011;3246;42.664;23.308;2023-06-24T11:34:35;9.95;;;8.02;;
6426;SDS011;3246;42.664;23.308;2023-06-24T11:37:08;9.25;;;8.38;;
6426;SDS011;3246;42.664;23.308;2023-06-24T11:39:35;7.95;;;7.35;;
6426;SDS011;3246;42.664;23.308;2023-06-24T11:42:02;10.07;;;9.18;;
6426;SDS011;3246;42.664;23.308;2023-06-24T11:44:28;8.57;;;7.88;;
6426;SDS011;3246;42.664;23.308;2023-06-24T11:47:02;13.23;;;8.32;;
6426;SDS011;3246;42.664;23.308;2023-06-24T11:49:30;9.63;;;8.63;;
6426;SDS011;3246;42.664;23.308;2023-06-24T11:51:57;8.27;;;7.68;;
6426;SDS011;3246;42.664;23.308;2023-06-24T11:54:23;10.88;;;8.50;;
6426;SDS011;3246;42.664;23.308;2023-06-24T11:56:50;7.68;;;7.00;;
6426;SDS011;3246;42.664;23.308;2023-06-24T11:59:17;15.43;;;13.88;;
6426;SDS011;3246;42.664;23.308;2023-06-24T12:01:44;14.05;;;11.13;;
6426;SDS011;3246;42.664;23.308;2023-06-24T12:04:11;25.45;;;22.58;;
6426;SDS011;3246;42.664;23.308;2023-06-24T12:06:39;23.00;;;20.60;;
6426;SDS011;3246;42.664;23.308;2023-06-24T12:09:07;16.48;;;14.25;;
6426;SDS011;3246;42.664;23.308;2023-06-24T12:11:33;12.43;;;11.30;;
6426;SDS011;3246;42.664;23.308;2023-06-24T12:14:00;8.57;;;7.78;;
6426;SDS011;3246;42.664;23.308;2023-06-24T12:16:26;10.98;;;7.82;;
6426;SDS011;3246;42.664;23.308;2023-06-24T12:18:53;18.38;;;10.40;;
6426;SDS011;3246;42.664;23.308;2023-06-24T12:21:19;8.48;;;7.70;;
6426;SDS011;3246;42.664;23.308;2023-06-24T12:23:47;9.20;;;8.25;;
6426;SDS011;3246;42.664;23.308;2023-06-24T12:26:14;13.18;;;11.60;;
6426;SDS011;3246;42.664;23.308;2023-06-24T12:28:41;11.40;;;8.63;;
6426;SDS011;3246;42.664;23.308;2023-06-24T12:31:07;9.15;;;7.78;;
6426;SDS011;3246;42.664;23.308;2023-06-24T12:33:34;9.82;;;8.23;;
6426;SDS011;3246;42.664;23.308;2023-06-24T12:36:00;10.55;;;9.10;;
6426;SDS011;3246;42.664;23.308;2023-06-24T12:38:27;9.95;;;8.02;;
6426;SDS011;3246;42.664;23.308;2023-06-24T12:40:55;11.48;;;9.93;;
6426;SDS011;3246;42.664;23.308;2023-06-24T12:43:22;11.20;;;9.88;;
6426;SDS011;3246;42.664;23.308;2023-06-24T12:45:48;10.43;;;9.43;;
6426;SDS011;3246;42.664;23.308;2023-06-24T12:48:16;10.00;;;9.15;;
6426;SDS011;3246;42.664;23.308;2023-06-24T12:50:42;10.55;;;9.65;;
6426;SDS011;3246;42.664;23.308;2023-06-24T12:53:09;12.07;;;10.82;;
6426;SDS011;3246;42.664;23.308;2023-06-24T12:55:38;13.25;;;11.60;;
6426;SDS011;3246;42.664;23.308;2023-06-24T12:58:06;15.48;;;13.45;;
6426;SDS011;3246;42.664;23.308;2023-06-24T13:00:33;16.08;;;14.50;;
6426;SDS011;3246;42.664;23.308;2023-06-24T13:02:59;16.73;;;14.93;;
6426;SDS011;3246;42.664;23.308;2023-06-24T13:05:26;17.52;;;14.07;;
6426;SDS011;3246;42.664;23.308;2023-06-24T13:07:52;18.20;;;16.30;;
6426;SDS011;3246;42.664;23.308;2023-06-24T13:10:20;12.13;;;10.98;;
6426;SDS011;3246;42.664;23.308;2023-06-24T13:12:46;10.95;;;10.00;;
6426;SDS011;3246;42.664;23.308;2023-06-24T13:15:14;9.30;;;8.52;;
6426;SDS011;3246;42.664;23.308;2023-06-24T13:17:41;10.30;;;9.30;;
6426;SDS011;3246;42.664;23.308;2023-06-24T13:20:07;13.32;;;9.07;;
6426;SDS011;3246;42.664;23.308;2023-06-24T13:22:34;15.35;;;9.68;;
6426;SDS011;3246;42.664;23.308;2023-06-24T13:25:00;11.75;;;10.52;;
6426;SDS011;3246;42.664;23.308;2023-06-24T13:27:27;11.43;;;10.10;;
6426;SDS011;3246;42.664;23.308;2023-06-24T13:29:53;16.10;;;9.95;;
6426;SDS011;3246;42.664;23.308;2023-06-24T13:32:21;18.48;;;11.68;;
6426;SDS011;3246;42.664;23.308;2023-06-24T13:34:48;13.52;;;10.10;;
6426;SDS011;3246;42.664;23.308;2023-06-24T13:37:15;25.60;;;8.48;;
6426;SDS011;3246;42.664;23.308;2023-06-24T13:39:41;11.07;;;6.53;;
6426;SDS011;3246;42.664;23.308;2023-06-24T13:42:08;12.70;;;6.72;;
6426;SDS011;3246;42.664;23.308;2023-06-24T13:44:34;18.10;;;7.70;;
6426;SDS011;3246;42.664;23.308;2023-06-24T13:47:01;17.00;;;9.65;;
6426;SDS011;3246;42.664;23.308;2023-06-24T13:49:29;19.45;;;9.68;;
6426;SDS011;3246;42.664;23.308;2023-06-24T13:51:55;17.00;;;8.68;;
6426;SDS011;3246;42.664;23.308;2023-06-24T13:54:22;28.73;;;9.30;;
6426;SDS011;3246;42.664;23.308;2023-06-24T13:56:49;22.65;;;9.35;;
6426;SDS011;3246;42.664;23.308;2023-06-24T13:59:16;14.38;;;7.22;;
6426;SDS011;3246;42.664;23.308;2023-06-24T14:01:42;14.38;;;6.45;;
6426;SDS011;3246;42.664;23.308;2023-06-24T14:04:09;20.05;;;6.82;;
6426;SDS011;3246;42.664;23.308;2023-06-24T14:06:37;8.10;;;6.07;;
6426;SDS011;3246;42.664;23.308;2023-06-24T14:09:03;7.65;;;6.65;;
6426;SDS011;3246;42.664;23.308;2023-06-24T14:11:30;10.20;;;6.40;;
6426;SDS011;3246;42.664;23.308;2023-06-24T14:13:56;10.95;;;5.95;;
6426;SDS011;3246;42.664;23.308;2023-06-24T14:16:23;10.25;;;5.82;;
6426;SDS011;3246;42.664;23.308;2023-06-24T14:18:49;8.63;;;6.43;;
6426;SDS011;3246;42.664;23.308;2023-06-24T14:21:16;5.53;;;4.95;;
6426;SDS011;3246;42.664;23.308;2023-06-24T14:23:44;12.60;;;6.20;;
6426;SDS011;3246;42.664;23.308;2023-06-24T14:26:10;11.88;;;5.50;;
6426;SDS011;3246;42.664;23.308;2023-06-24T14:28:37;15.82;;;7.30;;
6426;SDS011;3246;42.664;23.308;2023-06-24T14:31:03;15.90;;;6.18;;
6426;SDS011;3246;42.664;23.308;2023-06-24T14:33:30;10.48;;;6.35;;
6426;SDS011;3246;42.664;23.308;2023-06-24T14:35:56;10.75;;;5.75;;
6426;SDS011;3246;42.664;23.308;2023-06-24T14:38:23;6.85;;;5.53;;
6426;SDS011;3246;42.664;23.308;2023-06-24T14:40:50;12.15;;;6.78;;
6426;SDS011;3246;42.664;23.308;2023-06-24T14:43:17;10.50;;;6.95;;